sensor_id;sensor_type;location;lat;lon;timestamp;P1;durP1;ratioP1;P2;durP2;ratioP2
80233;SDS011;69712;42.142;24.766;2024-03-08T00:02:13;33.40;;;19.75;;
80233;SDS011;69712;42.142;24.766;2024-03-08T00:04:39;32.15;;;20.08;;
80233;SDS011;69712;42.142;24.766;2024-03-08T00:07:05;31.73;;;20.08;;
80233;SDS011;69712;42.142;24.766;2024-03-08T00:09:32;33.67;;;20.15;;
80233;SDS011;69712;42.142;24.766;2024-03-08T00:11:58;31.65;;;18.83;;
80233;SDS011;69712;42.142;24.766;2024-03-08T00:14:24;35.55;;;20.42;;
80233;SDS011;69712;42.142;24.766;2024-03-08T00:16:50;30.73;;;20.42;;
80233;SDS011;69712;42.142;24.766;2024-03-08T00:19:17;35.10;;;20.88;;
80233;SDS011;69712;42.142;24.766;2024-03-08T00:21:43;35.17;;;20.75;;
80233;SDS011;69712;42.142;24.766;2024-03-08T00:24:10;37.15;;;20.60;;
80233;SDS011;69712;42.142;24.766;2024-03-08T00:26:37;36.30;;;20.95;;
80233;SDS011;69712;42.142;24.766;2024-03-08T00:29:02;33.88;;;20.15;;
80233;SDS011;69712;42.142;24.766;2024-03-08T00:31:28;34.95;;;19.75;;
80233;SDS011;69712;42.142;24.766;2024-03-08T00:33:57;36.60;;;20.55;;
80233;SDS011;69712;42.142;24.766;2024-03-08T00:36:23;33.17;;;20.52;;
80233;SDS011;69712;42.142;24.766;2024-03-08T00:38:50;34.20;;;20.55;;
80233;SDS011;69712;42.142;24.766;2024-03-08T00:41:15;34.88;;;20.27;;
80233;SDS011;69712;42.142;24.766;2024-03-08T00:43:41;32.15;;;19.90;;
80233;SDS011;69712;42.142;24.766;2024-03-08T00:46:07;33.03;;;20.50;;
80233;SDS011;69712;42.142;24.766;2024-03-08T00:48:33;31.52;;;19.98;;
80233;SDS011;69712;42.142;24.766;2024-03-08T00:50:59;37.67;;;20.17;;
80233;SDS011;69712;42.142;24.766;2024-03-08T00:53:24;35.63;;;20.40;;
80233;SDS011;69712;42.142;24.766;2024-03-08T00:55:50;33.63;;;20.42;;
80233;SDS011;69712;42.142;24.766;2024-03-08T00:58:16;34.90;;;21.15;;
80233;SDS011;69712;42.142;24.766;2024-03-08T01:00:42;35.85;;;20.60;;
80233;SDS011;69712;42.142;24.766;2024-03-08T01:03:08;36.53;;;20.10;;
80233;SDS011;69712;42.142;24.766;2024-03-08T01:05:33;32.33;;;19.45;;
80233;SDS011;69712;42.142;24.766;2024-03-08T01:08:00;31.13;;;20.33;;
80233;SDS011;69712;42.142;24.766;2024-03-08T01:10:28;34.58;;;19.65;;
80233;SDS011;69712;42.142;24.766;2024-03-08T01:12:54;32.83;;;20.48;;
80233;SDS011;69712;42.142;24.766;2024-03-08T01:15:21;31.02;;;20.40;;
80233;SDS011;69712;42.142;24.766;2024-03-08T01:17:48;32.55;;;19.80;;
80233;SDS011;69712;42.142;24.766;2024-03-08T01:20:13;30.55;;;20.23;;
80233;SDS011;69712;42.142;24.766;2024-03-08T01:22:40;36.05;;;20.27;;
80233;SDS011;69712;42.142;24.766;2024-03-08T01:25:07;28.48;;;19.27;;
80233;SDS011;69712;42.142;24.766;2024-03-08T01:27:33;32.15;;;20.85;;
80233;SDS011;69712;42.142;24.766;2024-03-08T01:30:00;35.25;;;20.90;;
80233;SDS011;69712;42.142;24.766;2024-03-08T01:32:26;36.72;;;19.95;;
80233;SDS011;69712;42.142;24.766;2024-03-08T01:34:52;34.50;;;21.30;;
80233;SDS011;69712;42.142;24.766;2024-03-08T01:37:18;35.92;;;21.27;;
80233;SDS011;69712;42.142;24.766;2024-03-08T01:39:45;39.25;;;22.02;;
80233;SDS011;69712;42.142;24.766;2024-03-08T01:42:10;34.13;;;20.42;;
80233;SDS011;69712;42.142;24.766;2024-03-08T01:44:40;35.67;;;21.58;;
80233;SDS011;69712;42.142;24.766;2024-03-08T01:47:06;33.22;;;20.50;;
80233;SDS011;69712;42.142;24.766;2024-03-08T01:49:32;35.53;;;20.85;;
80233;SDS011;69712;42.142;24.766;2024-03-08T01:51:58;34.63;;;20.50;;
80233;SDS011;69712;42.142;24.766;2024-03-08T01:54:24;32.63;;;20.95;;
80233;SDS011;69712;42.142;24.766;2024-03-08T01:56:51;32.67;;;20.52;;
80233;SDS011;69712;42.142;24.766;2024-03-08T01:59:18;33.83;;;20.98;;
80233;SDS011;69712;42.142;24.766;2024-03-08T02:01:44;30.85;;;19.88;;
80233;SDS011;69712;42.142;24.766;2024-03-08T02:04:10;32.70;;;20.42;;
80233;SDS011;69712;42.142;24.766;2024-03-08T02:06:36;33.10;;;19.85;;
80233;SDS011;69712;42.142;24.766;2024-03-08T02:09:03;34.75;;;19.27;;
80233;SDS011;69712;42.142;24.766;2024-03-08T02:11:31;29.02;;;19.70;;
80233;SDS011;69712;42.142;24.766;2024-03-08T02:13:58;31.60;;;18.77;;
80233;SDS011;69712;42.142;24.766;2024-03-08T02:16:24;32.22;;;19.42;;
80233;SDS011;69712;42.142;24.766;2024-03-08T02:18:50;30.50;;;18.83;;
80233;SDS011;69712;42.142;24.766;2024-03-08T02:21:16;29.05;;;18.20;;
80233;SDS011;69712;42.142;24.766;2024-03-08T02:23:43;29.35;;;18.27;;
80233;SDS011;69712;42.142;24.766;2024-03-08T02:26:09;29.20;;;18.45;;
80233;SDS011;69712;42.142;24.766;2024-03-08T02:28:35;34.30;;;19.25;;
80233;SDS011;69712;42.142;24.766;2024-03-08T02:31:01;31.25;;;18.73;;
80233;SDS011;69712;42.142;24.766;2024-03-08T02:33:27;27.63;;;17.70;;
80233;SDS011;69712;42.142;24.766;2024-03-08T02:35:54;30.60;;;19.15;;
80233;SDS011;69712;42.142;24.766;2024-03-08T02:38:21;31.75;;;18.20;;
80233;SDS011;69712;42.142;24.766;2024-03-08T02:40:49;31.90;;;18.85;;
80233;SDS011;69712;42.142;24.766;2024-03-08T02:43:16;30.60;;;18.13;;
80233;SDS011;69712;42.142;24.766;2024-03-08T02:45:43;27.40;;;17.08;;
80233;SDS011;69712;42.142;24.766;2024-03-08T02:48:10;27.85;;;17.75;;
80233;SDS011;69712;42.142;24.766;2024-03-08T02:50:38;27.77;;;18.45;;
80233;SDS011;69712;42.142;24.766;2024-03-08T02:53:10;28.48;;;18.30;;
80233;SDS011;69712;42.142;24.766;2024-03-08T02:55:37;28.98;;;17.85;;
80233;SDS011;69712;42.142;24.766;2024-03-08T02:58:04;32.65;;;18.77;;
80233;SDS011;69712;42.142;24.766;2024-03-08T03:00:30;32.63;;;19.25;;
80233;SDS011;69712;42.142;24.766;2024-03-08T03:02:57;32.50;;;18.05;;
80233;SDS011;69712;42.142;24.766;2024-03-08T03:05:23;28.90;;;18.25;;
80233;SDS011;69712;42.142;24.766;2024-03-08T03:07:50;30.48;;;18.27;;
80233;SDS011;69712;42.142;24.766;2024-03-08T03:10:16;34.03;;;18.92;;
80233;SDS011;69712;42.142;24.766;2024-03-08T03:12:43;30.80;;;17.35;;
80233;SDS011;69712;42.142;24.766;2024-03-08T03:15:10;34.67;;;20.50;;
80233;SDS011;69712;42.142;24.766;2024-03-08T03:17:36;34.20;;;16.77;;
80233;SDS011;69712;42.142;24.766;2024-03-08T03:20:04;35.97;;;19.17;;
80233;SDS011;69712;42.142;24.766;2024-03-08T03:22:37;34.03;;;19.33;;
80233;SDS011;69712;42.142;24.766;2024-03-08T03:25:04;32.55;;;19.60;;
80233;SDS011;69712;42.142;24.766;2024-03-08T03:27:31;36.45;;;21.73;;
80233;SDS011;69712;42.142;24.766;2024-03-08T03:29:58;34.38;;;19.98;;
80233;SDS011;69712;42.142;24.766;2024-03-08T03:32:24;35.67;;;20.17;;
80233;SDS011;69712;42.142;24.766;2024-03-08T03:34:49;37.17;;;21.15;;
80233;SDS011;69712;42.142;24.766;2024-03-08T03:37:19;37.58;;;20.40;;
80233;SDS011;69712;42.142;24.766;2024-03-08T03:39:45;35.97;;;19.63;;
80233;SDS011;69712;42.142;24.766;2024-03-08T03:42:17;32.60;;;19.30;;
80233;SDS011;69712;42.142;24.766;2024-03-08T03:44:44;35.28;;;19.65;;
80233;SDS011;69712;42.142;24.766;2024-03-08T03:47:13;30.90;;;17.23;;
80233;SDS011;69712;42.142;24.766;2024-03-08T03:49:41;35.30;;;20.33;;
80233;SDS011;69712;42.142;24.766;2024-03-08T03:52:06;37.72;;;21.13;;
80233;SDS011;69712;42.142;24.766;2024-03-08T03:54:32;37.47;;;21.33;;
80233;SDS011;69712;42.142;24.766;2024-03-08T03:56:58;41.00;;;21.23;;
80233;SDS011;69712;42.142;24.766;2024-03-08T03:59:25;35.95;;;20.23;;
80233;SDS011;69712;42.142;24.766;2024-03-08T04:01:55;38.90;;;20.65;;
80233;SDS011;69712;42.142;24.766;2024-03-08T04:04:21;37.42;;;21.33;;
80233;SDS011;69712;42.142;24.766;2024-03-08T04:06:47;37.22;;;20.80;;
80233;SDS011;69712;42.142;24.766;2024-03-08T04:09:13;37.55;;;21.13;;
80233;SDS011;69712;42.142;24.766;2024-03-08T04:11:39;37.75;;;21.00;;
80233;SDS011;69712;42.142;24.766;2024-03-08T04:14:05;37.75;;;21.05;;
80233;SDS011;69712;42.142;24.766;2024-03-08T04:16:31;37.63;;;21.08;;
80233;SDS011;69712;42.142;24.766;2024-03-08T04:19:00;40.13;;;22.95;;
80233;SDS011;69712;42.142;24.766;2024-03-08T04:21:29;35.13;;;20.27;;
80233;SDS011;69712;42.142;24.766;2024-03-08T04:23:55;36.53;;;20.55;;
80233;SDS011;69712;42.142;24.766;2024-03-08T04:26:21;36.35;;;20.88;;
80233;SDS011;69712;42.142;24.766;2024-03-08T04:28:47;39.40;;;20.95;;
80233;SDS011;69712;42.142;24.766;2024-03-08T04:31:13;38.30;;;20.95;;
80233;SDS011;69712;42.142;24.766;2024-03-08T04:33:40;40.28;;;21.52;;
80233;SDS011;69712;42.142;24.766;2024-03-08T04:36:06;42.45;;;22.52;;
80233;SDS011;69712;42.142;24.766;2024-03-08T04:38:32;35.35;;;20.73;;
80233;SDS011;69712;42.142;24.766;2024-03-08T04:40:59;34.05;;;20.38;;
80233;SDS011;69712;42.142;24.766;2024-03-08T04:43:27;39.13;;;20.65;;
80233;SDS011;69712;42.142;24.766;2024-03-08T04:45:55;32.75;;;20.08;;
80233;SDS011;69712;42.142;24.766;2024-03-08T04:48:21;36.30;;;20.15;;
80233;SDS011;69712;42.142;24.766;2024-03-08T04:50:47;34.35;;;19.20;;
80233;SDS011;69712;42.142;24.766;2024-03-08T04:53:13;40.80;;;22.30;;
80233;SDS011;69712;42.142;24.766;2024-03-08T04:55:39;36.90;;;20.17;;
80233;SDS011;69712;42.142;24.766;2024-03-08T04:58:05;39.58;;;22.17;;
80233;SDS011;69712;42.142;24.766;2024-03-08T05:00:31;36.97;;;19.20;;
80233;SDS011;69712;42.142;24.766;2024-03-08T05:02:58;42.75;;;22.20;;
80233;SDS011;69712;42.142;24.766;2024-03-08T05:05:24;38.35;;;21.33;;
80233;SDS011;69712;42.142;24.766;2024-03-08T05:07:51;41.03;;;22.45;;
80233;SDS011;69712;42.142;24.766;2024-03-08T05:10:16;44.63;;;22.88;;
80233;SDS011;69712;42.142;24.766;2024-03-08T05:12:43;40.72;;;22.88;;
80233;SDS011;69712;42.142;24.766;2024-03-08T05:15:09;40.28;;;23.35;;
80233;SDS011;69712;42.142;24.766;2024-03-08T05:17:35;41.35;;;22.05;;
80233;SDS011;69712;42.142;24.766;2024-03-08T05:20:01;41.40;;;22.13;;
80233;SDS011;69712;42.142;24.766;2024-03-08T05:22:27;42.00;;;22.27;;
80233;SDS011;69712;42.142;24.766;2024-03-08T05:24:53;39.15;;;22.27;;
80233;SDS011;69712;42.142;24.766;2024-03-08T05:27:19;36.60;;;20.73;;
80233;SDS011;69712;42.142;24.766;2024-03-08T05:29:44;40.92;;;22.42;;
80233;SDS011;69712;42.142;24.766;2024-03-08T05:32:11;40.08;;;21.98;;
80233;SDS011;69712;42.142;24.766;2024-03-08T05:34:37;37.80;;;21.85;;
80233;SDS011;69712;42.142;24.766;2024-03-08T05:37:03;39.80;;;22.05;;
80233;SDS011;69712;42.142;24.766;2024-03-08T05:39:29;39.95;;;22.45;;
80233;SDS011;69712;42.142;24.766;2024-03-08T05:41:55;43.78;;;23.40;;
80233;SDS011;69712;42.142;24.766;2024-03-08T05:44:21;40.20;;;23.08;;
80233;SDS011;69712;42.142;24.766;2024-03-08T05:46:47;38.53;;;22.00;;
80233;SDS011;69712;42.142;24.766;2024-03-08T05:49:13;39.40;;;21.73;;
80233;SDS011;69712;42.142;24.766;2024-03-08T05:51:39;37.30;;;20.67;;
80233;SDS011;69712;42.142;24.766;2024-03-08T05:54:06;43.22;;;21.80;;
80233;SDS011;69712;42.142;24.766;2024-03-08T05:56:35;41.22;;;21.88;;
80233;SDS011;69712;42.142;24.766;2024-03-08T05:59:01;42.58;;;22.83;;
80233;SDS011;69712;42.142;24.766;2024-03-08T06:01:27;39.63;;;21.95;;
80233;SDS011;69712;42.142;24.766;2024-03-08T06:03:54;42.20;;;21.75;;
80233;SDS011;69712;42.142;24.766;2024-03-08T06:06:22;36.42;;;22.50;;
80233;SDS011;69712;42.142;24.766;2024-03-08T06:08:49;37.28;;;22.35;;
80233;SDS011;69712;42.142;24.766;2024-03-08T06:11:16;46.67;;;24.90;;
80233;SDS011;69712;42.142;24.766;2024-03-08T06:13:43;44.72;;;24.63;;
80233;SDS011;69712;42.142;24.766;2024-03-08T06:16:12;41.03;;;22.95;;
80233;SDS011;69712;42.142;24.766;2024-03-08T06:18:38;41.90;;;23.65;;
80233;SDS011;69712;42.142;24.766;2024-03-08T06:21:04;39.88;;;23.67;;
80233;SDS011;69712;42.142;24.766;2024-03-08T06:23:34;47.47;;;23.70;;
80233;SDS011;69712;42.142;24.766;2024-03-08T06:26:03;40.50;;;22.60;;
80233;SDS011;69712;42.142;24.766;2024-03-08T06:28:30;39.55;;;22.70;;
80233;SDS011;69712;42.142;24.766;2024-03-08T06:30:57;39.75;;;22.33;;
80233;SDS011;69712;42.142;24.766;2024-03-08T06:33:27;40.25;;;22.98;;
80233;SDS011;69712;42.142;24.766;2024-03-08T06:35:53;44.67;;;22.80;;
80233;SDS011;69712;42.142;24.766;2024-03-08T06:38:22;48.80;;;25.50;;
80233;SDS011;69712;42.142;24.766;2024-03-08T06:40:49;45.00;;;23.95;;
80233;SDS011;69712;42.142;24.766;2024-03-08T06:43:16;40.97;;;23.33;;
80233;SDS011;69712;42.142;24.766;2024-03-08T06:45:43;40.50;;;22.52;;
80233;SDS011;69712;42.142;24.766;2024-03-08T06:48:15;39.65;;;22.63;;
80233;SDS011;69712;42.142;24.766;2024-03-08T06:50:42;41.90;;;24.13;;
80233;SDS011;69712;42.142;24.766;2024-03-08T06:53:12;45.55;;;23.05;;
80233;SDS011;69712;42.142;24.766;2024-03-08T06:55:38;40.63;;;21.80;;
80233;SDS011;69712;42.142;24.766;2024-03-08T06:58:04;40.80;;;22.63;;
80233;SDS011;69712;42.142;24.766;2024-03-08T07:00:31;43.20;;;24.58;;
80233;SDS011;69712;42.142;24.766;2024-03-08T07:02:58;40.75;;;22.40;;
80233;SDS011;69712;42.142;24.766;2024-03-08T07:05:27;45.33;;;21.77;;
80233;SDS011;69712;42.142;24.766;2024-03-08T07:07:54;42.50;;;22.17;;
80233;SDS011;69712;42.142;24.766;2024-03-08T07:10:20;43.08;;;22.48;;
80233;SDS011;69712;42.142;24.766;2024-03-08T07:12:52;42.85;;;22.95;;
80233;SDS011;69712;42.142;24.766;2024-03-08T07:15:20;36.10;;;21.98;;
80233;SDS011;69712;42.142;24.766;2024-03-08T07:17:48;41.05;;;22.40;;
80233;SDS011;69712;42.142;24.766;2024-03-08T07:20:14;38.85;;;22.55;;
80233;SDS011;69712;42.142;24.766;2024-03-08T07:22:44;41.42;;;22.50;;
80233;SDS011;69712;42.142;24.766;2024-03-08T07:25:12;39.55;;;23.15;;
80233;SDS011;69712;42.142;24.766;2024-03-08T07:27:54;43.13;;;24.23;;
80233;SDS011;69712;42.142;24.766;2024-03-08T07:30:24;44.85;;;23.83;;
80233;SDS011;69712;42.142;24.766;2024-03-08T07:33:09;47.83;;;23.48;;
80233;SDS011;69712;42.142;24.766;2024-03-08T07:35:39;44.78;;;24.13;;
80233;SDS011;69712;42.142;24.766;2024-03-08T07:38:07;41.67;;;24.13;;
80233;SDS011;69712;42.142;24.766;2024-03-08T07:40:41;39.50;;;22.30;;
80233;SDS011;69712;42.142;24.766;2024-03-08T07:43:09;38.40;;;21.95;;
80233;SDS011;69712;42.142;24.766;2024-03-08T07:45:39;45.28;;;25.17;;
80233;SDS011;69712;42.142;24.766;2024-03-08T07:48:05;36.38;;;22.15;;
80233;SDS011;69712;42.142;24.766;2024-03-08T07:50:38;45.85;;;23.23;;
80233;SDS011;69712;42.142;24.766;2024-03-08T07:53:05;42.70;;;21.83;;
80233;SDS011;69712;42.142;24.766;2024-03-08T07:55:32;39.50;;;21.85;;
80233;SDS011;69712;42.142;24.766;2024-03-08T07:58:00;39.88;;;20.70;;
80233;SDS011;69712;42.142;24.766;2024-03-08T08:00:26;36.33;;;19.52;;
80233;SDS011;69712;42.142;24.766;2024-03-08T08:02:52;36.83;;;20.40;;
80233;SDS011;69712;42.142;24.766;2024-03-08T08:05:19;34.03;;;20.55;;
80233;SDS011;69712;42.142;24.766;2024-03-08T08:07:45;35.65;;;20.83;;
80233;SDS011;69712;42.142;24.766;2024-03-08T08:10:12;37.92;;;20.70;;
80233;SDS011;69712;42.142;24.766;2024-03-08T08:12:47;34.47;;;20.67;;
80233;SDS011;69712;42.142;24.766;2024-03-08T08:15:13;39.65;;;21.27;;
80233;SDS011;69712;42.142;24.766;2024-03-08T08:17:43;32.20;;;19.77;;
80233;SDS011;69712;42.142;24.766;2024-03-08T08:20:10;34.42;;;20.63;;
80233;SDS011;69712;42.142;24.766;2024-03-08T08:22:41;34.53;;;20.85;;
80233;SDS011;69712;42.142;24.766;2024-03-08T08:25:08;39.05;;;21.75;;
80233;SDS011;69712;42.142;24.766;2024-03-08T08:27:34;31.70;;;19.52;;
80233;SDS011;69712;42.142;24.766;2024-03-08T08:30:04;31.38;;;19.40;;
80233;SDS011;69712;42.142;24.766;2024-03-08T08:32:33;39.65;;;21.63;;
80233;SDS011;69712;42.142;24.766;2024-03-08T08:35:01;29.65;;;17.45;;
80233;SDS011;69712;42.142;24.766;2024-03-08T08:37:27;34.10;;;18.10;;
80233;SDS011;69712;42.142;24.766;2024-03-08T08:39:53;30.08;;;18.58;;
80233;SDS011;69712;42.142;24.766;2024-03-08T08:42:19;29.17;;;17.88;;
80233;SDS011;69712;42.142;24.766;2024-03-08T08:44:45;32.60;;;18.40;;
80233;SDS011;69712;42.142;24.766;2024-03-08T08:47:11;34.45;;;19.52;;
80233;SDS011;69712;42.142;24.766;2024-03-08T08:49:38;37.50;;;20.00;;
80233;SDS011;69712;42.142;24.766;2024-03-08T08:52:04;34.55;;;19.83;;
80233;SDS011;69712;42.142;24.766;2024-03-08T08:54:30;33.78;;;19.13;;
80233;SDS011;69712;42.142;24.766;2024-03-08T08:56:56;36.15;;;18.80;;
80233;SDS011;69712;42.142;24.766;2024-03-08T08:59:22;30.92;;;18.55;;
80233;SDS011;69712;42.142;24.766;2024-03-08T09:01:50;33.33;;;18.55;;
80233;SDS011;69712;42.142;24.766;2024-03-08T09:04:18;33.42;;;18.73;;
80233;SDS011;69712;42.142;24.766;2024-03-08T09:06:44;35.47;;;20.98;;
80233;SDS011;69712;42.142;24.766;2024-03-08T09:09:10;39.88;;;19.88;;
80233;SDS011;69712;42.142;24.766;2024-03-08T09:11:38;29.15;;;16.80;;
80233;SDS011;69712;42.142;24.766;2024-03-08T09:14:06;31.80;;;17.42;;
80233;SDS011;69712;42.142;24.766;2024-03-08T09:16:33;27.63;;;16.75;;
80233;SDS011;69712;42.142;24.766;2024-03-08T09:18:59;24.58;;;14.55;;
80233;SDS011;69712;42.142;24.766;2024-03-08T09:21:25;26.13;;;16.17;;
80233;SDS011;69712;42.142;24.766;2024-03-08T09:23:52;26.63;;;15.88;;
80233;SDS011;69712;42.142;24.766;2024-03-08T09:26:18;27.75;;;16.70;;
80233;SDS011;69712;42.142;24.766;2024-03-08T09:28:44;26.52;;;16.83;;
80233;SDS011;69712;42.142;24.766;2024-03-08T09:31:10;25.25;;;15.63;;
80233;SDS011;69712;42.142;24.766;2024-03-08T09:33:37;23.65;;;16.10;;
80233;SDS011;69712;42.142;24.766;2024-03-08T09:36:07;23.40;;;15.35;;
80233;SDS011;69712;42.142;24.766;2024-03-08T09:38:33;26.90;;;16.13;;
80233;SDS011;69712;42.142;24.766;2024-03-08T09:40:59;26.02;;;15.45;;
80233;SDS011;69712;42.142;24.766;2024-03-08T09:43:27;29.65;;;16.10;;
80233;SDS011;69712;42.142;24.766;2024-03-08T09:45:53;24.23;;;15.43;;
80233;SDS011;69712;42.142;24.766;2024-03-08T09:48:20;22.00;;;14.25;;
80233;SDS011;69712;42.142;24.766;2024-03-08T09:50:48;25.58;;;14.60;;
80233;SDS011;69712;42.142;24.766;2024-03-08T09:53:14;28.73;;;15.68;;
80233;SDS011;69712;42.142;24.766;2024-03-08T09:55:41;36.28;;;21.40;;
80233;SDS011;69712;42.142;24.766;2024-03-08T09:58:10;27.77;;;17.58;;
80233;SDS011;69712;42.142;24.766;2024-03-08T10:00:46;25.55;;;16.13;;
80233;SDS011;69712;42.142;24.766;2024-03-08T10:03:12;23.52;;;14.68;;
80233;SDS011;69712;42.142;24.766;2024-03-08T10:05:40;22.20;;;13.60;;
80233;SDS011;69712;42.142;24.766;2024-03-08T10:08:06;22.00;;;14.43;;
80233;SDS011;69712;42.142;24.766;2024-03-08T10:10:42;22.67;;;14.73;;
80233;SDS011;69712;42.142;24.766;2024-03-08T10:13:08;25.48;;;14.93;;
80233;SDS011;69712;42.142;24.766;2024-03-08T10:15:36;26.60;;;14.77;;
80233;SDS011;69712;42.142;24.766;2024-03-08T10:18:03;21.27;;;13.98;;
80233;SDS011;69712;42.142;24.766;2024-03-08T10:20:30;25.83;;;15.65;;
80233;SDS011;69712;42.142;24.766;2024-03-08T10:23:00;22.15;;;14.07;;
80233;SDS011;69712;42.142;24.766;2024-03-08T10:25:28;23.58;;;15.48;;
80233;SDS011;69712;42.142;24.766;2024-03-08T10:27:55;25.75;;;15.63;;
80233;SDS011;69712;42.142;24.766;2024-03-08T10:30:21;24.10;;;15.70;;
80233;SDS011;69712;42.142;24.766;2024-03-08T10:32:48;25.63;;;15.82;;
80233;SDS011;69712;42.142;24.766;2024-03-08T10:35:14;23.92;;;14.70;;
80233;SDS011;69712;42.142;24.766;2024-03-08T10:37:45;24.08;;;15.15;;
80233;SDS011;69712;42.142;24.766;2024-03-08T10:40:17;25.10;;;16.23;;
80233;SDS011;69712;42.142;24.766;2024-03-08T10:42:54;29.08;;;15.77;;
80233;SDS011;69712;42.142;24.766;2024-03-08T10:45:39;22.92;;;16.30;;
80233;SDS011;69712;42.142;24.766;2024-03-08T10:50:57;22.90;;;14.70;;
80233;SDS011;69712;42.142;24.766;2024-03-08T10:53:24;22.42;;;14.25;;
80233;SDS011;69712;42.142;24.766;2024-03-08T10:55:53;22.13;;;14.73;;
80233;SDS011;69712;42.142;24.766;2024-03-08T10:58:29;22.15;;;14.52;;
80233;SDS011;69712;42.142;24.766;2024-03-08T11:00:56;22.33;;;14.52;;
80233;SDS011;69712;42.142;24.766;2024-03-08T11:06:21;21.98;;;14.32;;
80233;SDS011;69712;42.142;24.766;2024-03-08T11:09:03;23.45;;;14.80;;
80233;SDS011;69712;42.142;24.766;2024-03-08T11:11:49;26.40;;;15.00;;
80233;SDS011;69712;42.142;24.766;2024-03-08T11:17:14;30.58;;;16.33;;
80233;SDS011;69712;42.142;24.766;2024-03-08T11:22:20;21.88;;;13.18;;
80233;SDS011;69712;42.142;24.766;2024-03-08T11:24:58;22.25;;;13.13;;
80233;SDS011;69712;42.142;24.766;2024-03-08T11:27:33;20.40;;;12.40;;
80233;SDS011;69712;42.142;24.766;2024-03-08T11:30:02;17.10;;;11.32;;
80233;SDS011;69712;42.142;24.766;2024-03-08T11:32:36;18.40;;;12.40;;
80233;SDS011;69712;42.142;24.766;2024-03-08T11:35:07;24.13;;;12.73;;
80233;SDS011;69712;42.142;24.766;2024-03-08T11:37:43;17.42;;;12.10;;
80233;SDS011;69712;42.142;24.766;2024-03-08T11:40:13;18.02;;;12.52;;
80233;SDS011;69712;42.142;24.766;2024-03-08T11:42:43;17.20;;;11.98;;
80233;SDS011;69712;42.142;24.766;2024-03-08T11:45:11;20.75;;;12.18;;
80233;SDS011;69712;42.142;24.766;2024-03-08T11:47:39;14.77;;;10.68;;
80233;SDS011;69712;42.142;24.766;2024-03-08T11:50:10;16.63;;;11.25;;
80233;SDS011;69712;42.142;24.766;2024-03-08T11:52:36;16.45;;;10.82;;
80233;SDS011;69712;42.142;24.766;2024-03-08T11:55:03;15.70;;;10.85;;
80233;SDS011;69712;42.142;24.766;2024-03-08T11:57:30;18.73;;;11.80;;
80233;SDS011;69712;42.142;24.766;2024-03-08T11:59:57;17.13;;;12.02;;
80233;SDS011;69712;42.142;24.766;2024-03-08T12:02:31;15.73;;;10.80;;
80233;SDS011;69712;42.142;24.766;2024-03-08T12:05:00;17.75;;;10.50;;
80233;SDS011;69712;42.142;24.766;2024-03-08T12:07:28;13.48;;;10.05;;
80233;SDS011;69712;42.142;24.766;2024-03-08T12:12:46;20.00;;;11.02;;
80233;SDS011;69712;42.142;24.766;2024-03-08T12:15:20;17.02;;;11.60;;
80233;SDS011;69712;42.142;24.766;2024-03-08T12:17:48;14.98;;;10.98;;
80233;SDS011;69712;42.142;24.766;2024-03-08T12:20:19;19.42;;;13.02;;
80233;SDS011;69712;42.142;24.766;2024-03-08T12:22:46;18.20;;;12.63;;
80233;SDS011;69712;42.142;24.766;2024-03-08T12:25:13;22.08;;;13.20;;
80233;SDS011;69712;42.142;24.766;2024-03-08T12:27:40;23.73;;;13.00;;
80233;SDS011;69712;42.142;24.766;2024-03-08T12:30:19;21.70;;;11.80;;
80233;SDS011;69712;42.142;24.766;2024-03-08T12:32:55;17.83;;;11.55;;
80233;SDS011;69712;42.142;24.766;2024-03-08T12:35:26;16.70;;;11.35;;
80233;SDS011;69712;42.142;24.766;2024-03-08T12:37:54;16.98;;;10.85;;
80233;SDS011;69712;42.142;24.766;2024-03-08T12:40:30;13.88;;;9.75;;
80233;SDS011;69712;42.142;24.766;2024-03-08T12:42:57;17.00;;;9.90;;
80233;SDS011;69712;42.142;24.766;2024-03-08T12:45:24;15.60;;;9.48;;
80233;SDS011;69712;42.142;24.766;2024-03-08T12:47:54;15.93;;;10.02;;
80233;SDS011;69712;42.142;24.766;2024-03-08T12:50:23;14.63;;;9.95;;
80233;SDS011;69712;42.142;24.766;2024-03-08T12:52:50;13.23;;;9.82;;
80233;SDS011;69712;42.142;24.766;2024-03-08T12:55:17;12.82;;;9.18;;
80233;SDS011;69712;42.142;24.766;2024-03-08T12:57:44;12.32;;;9.35;;
80233;SDS011;69712;42.142;24.766;2024-03-08T13:00:10;15.52;;;9.18;;
80233;SDS011;69712;42.142;24.766;2024-03-08T13:02:47;14.52;;;8.77;;
80233;SDS011;69712;42.142;24.766;2024-03-08T13:05:13;12.38;;;8.85;;
80233;SDS011;69712;42.142;24.766;2024-03-08T13:07:42;14.93;;;8.65;;
80233;SDS011;69712;42.142;24.766;2024-03-08T13:10:14;10.77;;;7.88;;
80233;SDS011;69712;42.142;24.766;2024-03-08T13:12:43;11.98;;;7.95;;
80233;SDS011;69712;42.142;24.766;2024-03-08T13:15:09;11.57;;;7.88;;
80233;SDS011;69712;42.142;24.766;2024-03-08T13:17:45;14.02;;;8.73;;
80233;SDS011;69712;42.142;24.766;2024-03-08T13:20:14;13.82;;;8.70;;
80233;SDS011;69712;42.142;24.766;2024-03-08T13:22:45;12.70;;;7.70;;
80233;SDS011;69712;42.142;24.766;2024-03-08T13:25:12;13.43;;;8.25;;
80233;SDS011;69712;42.142;24.766;2024-03-08T13:27:41;13.50;;;8.25;;
80233;SDS011;69712;42.142;24.766;2024-03-08T13:30:23;11.60;;;7.88;;
80233;SDS011;69712;42.142;24.766;2024-03-08T13:32:54;10.73;;;8.10;;
80233;SDS011;69712;42.142;24.766;2024-03-08T13:35:22;10.85;;;7.57;;
80233;SDS011;69712;42.142;24.766;2024-03-08T13:37:52;12.48;;;8.07;;
80233;SDS011;69712;42.142;24.766;2024-03-08T13:40:18;12.45;;;7.88;;
80233;SDS011;69712;42.142;24.766;2024-03-08T13:42:48;11.23;;;8.27;;
80233;SDS011;69712;42.142;24.766;2024-03-08T13:45:14;10.75;;;7.65;;
80233;SDS011;69712;42.142;24.766;2024-03-08T13:47:43;14.13;;;8.00;;
80233;SDS011;69712;42.142;24.766;2024-03-08T13:50:10;17.63;;;7.97;;
80233;SDS011;69712;42.142;24.766;2024-03-08T13:52:37;11.07;;;8.40;;
80233;SDS011;69712;42.142;24.766;2024-03-08T13:55:07;11.50;;;7.88;;
80233;SDS011;69712;42.142;24.766;2024-03-08T13:57:33;12.13;;;8.60;;
80233;SDS011;69712;42.142;24.766;2024-03-08T13:59:59;12.57;;;8.02;;
80233;SDS011;69712;42.142;24.766;2024-03-08T14:02:26;13.70;;;8.02;;
80233;SDS011;69712;42.142;24.766;2024-03-08T14:04:54;13.15;;;8.60;;
80233;SDS011;69712;42.142;24.766;2024-03-08T14:07:20;14.60;;;8.98;;
80233;SDS011;69712;42.142;24.766;2024-03-08T14:09:46;15.57;;;8.90;;
80233;SDS011;69712;42.142;24.766;2024-03-08T14:12:12;12.32;;;8.63;;
80233;SDS011;69712;42.142;24.766;2024-03-08T14:14:40;15.40;;;8.40;;
80233;SDS011;69712;42.142;24.766;2024-03-08T14:17:07;11.25;;;8.43;;
80233;SDS011;69712;42.142;24.766;2024-03-08T14:19:35;13.65;;;9.05;;
80233;SDS011;69712;42.142;24.766;2024-03-08T14:22:01;14.40;;;8.48;;
80233;SDS011;69712;42.142;24.766;2024-03-08T14:24:29;11.27;;;8.38;;
80233;SDS011;69712;42.142;24.766;2024-03-08T14:26:56;12.35;;;8.30;;
80233;SDS011;69712;42.142;24.766;2024-03-08T14:29:25;11.20;;;7.80;;